Time;durP1;ratioP1;P1;durP2;ratioP2;P2;SDS_P1;SDS_P2;PMS_P1;PMS_P2;Temp;Humidity;BMP_temperature;BMP_pressure;BME280_temperature;BME280_humidity;BME280_pressure;Samples;Min_cycle;Max_cycle;Signal;HPM_P1;HPM_P2
2023/04/08 00:01:56;;;;;;;4.73;4.10;;;;;;;;;;5048588;28;20194;-76
2023/04/08 00:04:22;;;;;;;4.67;4.17;;;;;;;;;;5043940;28;20197;-76
2023/04/08 00:06:48;;;;;;;4.90;4.17;;;;;;;;;;5042582;28;20580;-76
2023/04/08 00:09:15;;;;;;;4.90;4.37;;;;;;;;;;5043961;28;20204;-77
2023/04/08 00:11:41;;;;;;;5.10;4.50;;;;;;;;;;5047838;28;20209;-77
2023/04/08 00:14:08;;;;;;;5.00;4.50;;;;;;;;;;5037551;28;20197;-76
2023/04/08 00:16:34;;;;;;;5.43;4.10;;;;;;;;;;5045740;28;20194;-77
2023/04/08 00:19:00;;;;;;;3.97;3.57;;;;;;;;;;5041995;28;20186;-76
2023/04/08 00:21:26;;;;;;;4.47;4.07;;;;;;;;;;5044025;28;20181;-76
2023/04/08 00:23:52;;;;;;;4.77;4.27;;;;;;;;;;5043346;28;20280;-76
2023/04/08 00:26:19;;;;;;;4.70;4.20;;;;;;;;;;5044055;28;20535;-76
2023/04/08 00:28:51;;;;;;;4.60;4.20;;;;;;;;;;5046405;28;20189;-76
2023/04/08 00:31:17;;;;;;;4.40;4.00;;;;;;;;;;5045508;28;20840;-76
2023/04/08 00:33:43;;;;;;;4.93;4.43;;;;;;;;;;5047699;28;20182;-76
2023/04/08 00:36:10;;;;;;;4.23;3.70;;;;;;;;;;5026977;28;20194;-76
2023/04/08 00:38:36;;;;;;;5.33;4.20;;;;;;;;;;5049337;28;20958;-77
2023/04/08 00:41:02;;;;;;;4.93;4.43;;;;;;;;;;5047844;28;20274;-78
2023/04/08 00:43:28;;;;;;;4.70;4.20;;;;;;;;;;5043497;28;20296;-77
2023/04/08 00:45:54;;;;;;;4.10;3.70;;;;;;;;;;5035655;28;20189;-76
2023/04/08 00:48:20;;;;;;;4.43;4.03;;;;;;;;;;5046607;28;20186;-77
2023/04/08 00:50:47;;;;;;;4.83;4.43;;;;;;;;;;5048864;28;20239;-76
2023/04/08 00:53:17;;;;;;;4.20;3.80;;;;;;;;;;4979473;28;1991290;-76
2023/04/08 00:55:44;;;;;;;4.50;3.90;;;;;;;;;;5050206;28;20192;-76
2023/04/08 00:58:10;;;;;;;4.43;3.80;;;;;;;;;;5038684;28;20218;-76
2023/04/08 01:00:41;;;;;;;4.77;3.90;;;;;;;;;;5050710;28;20183;-77
2023/04/08 01:03:09;;;;;;;4.63;4.23;;;;;;;;;;5045279;28;20213;-76
2023/04/08 01:05:48;;;;;;;4.30;3.90;;;;;;;;;;5031482;28;20243;-76
2023/04/08 01:08:20;;;;;;;4.47;4.07;;;;;;;;;;5047233;28;20477;-76
2023/04/08 01:10:51;;;;;;;4.63;4.13;;;;;;;;;;5042037;28;20174;-76
2023/04/08 01:13:17;;;;;;;4.40;3.53;;;;;;;;;;5047699;28;20202;-76
2023/04/08 01:15:44;;;;;;;4.40;3.93;;;;;;;;;;5031011;28;20194;-76
2023/04/08 01:18:12;;;;;;;5.10;4.60;;;;;;;;;;5051017;28;20550;-76
2023/04/08 01:20:40;;;;;;;4.50;4.10;;;;;;;;;;5047752;28;20888;-76
2023/04/08 01:23:12;;;;;;;5.17;4.67;;;;;;;;;;5048065;28;20289;-76
2023/04/08 01:25:39;;;;;;;4.63;4.07;;;;;;;;;;5049151;28;20265;-76
2023/04/08 01:28:07;;;;;;;4.40;4.00;;;;;;;;;;5040996;28;20231;-76
2023/04/08 01:30:34;;;;;;;5.00;4.50;;;;;;;;;;5043476;28;20251;-76
2023/04/08 01:33:02;;;;;;;4.60;4.10;;;;;;;;;;5045684;28;20208;-76
2023/04/08 01:35:28;;;;;;;4.77;4.37;;;;;;;;;;5034537;28;20190;-76
2023/04/08 01:37:55;;;;;;;5.23;4.73;;;;;;;;;;5045954;28;20291;-76
2023/04/08 01:40:22;;;;;;;5.17;4.67;;;;;;;;;;5039237;28;20186;-76
2023/04/08 01:42:49;;;;;;;5.03;4.57;;;;;;;;;;5032267;28;20737;-76
2023/04/08 01:45:15;;;;;;;6.03;4.77;;;;;;;;;;5046990;28;20181;-77
2023/04/08 01:47:43;;;;;;;5.63;5.13;;;;;;;;;;5046141;28;20185;-76
2023/04/08 01:50:11;;;;;;;6.23;4.97;;;;;;;;;;5052608;28;20193;-76
2023/04/08 01:52:40;;;;;;;5.60;5.10;;;;;;;;;;5027158;28;20223;-76
2023/04/08 01:55:06;;;;;;;5.67;5.17;;;;;;;;;;5027583;28;20273;-76
2023/04/08 01:57:34;;;;;;;5.60;5.10;;;;;;;;;;5059114;28;20187;-78
2023/04/08 02:00:03;;;;;;;6.30;5.70;;;;;;;;;;5044920;28;20818;-76
2023/04/08 02:02:31;;;;;;;6.83;5.43;;;;;;;;;;5042539;28;20197;-76
2023/04/08 02:04:57;;;;;;;6.40;5.80;;;;;;;;;;5047055;28;20220;-76
2023/04/08 02:07:24;;;;;;;6.93;6.17;;;;;;;;;;5047996;28;20265;-76
2023/04/08 02:09:50;;;;;;;7.23;6.03;;;;;;;;;;5030224;28;20178;-76
2023/04/08 02:12:16;;;;;;;6.40;5.80;;;;;;;;;;5039007;28;20198;-76
2023/04/08 02:14:43;;;;;;;7.23;6.40;;;;;;;;;;5047452;28;20177;-76
2023/04/08 02:17:11;;;;;;;7.07;6.37;;;;;;;;;;5045242;28;20217;-76
2023/04/08 02:19:48;;;;;;;6.90;6.20;;;;;;;;;;5038744;28;20848;-76
2023/04/08 02:22:23;;;;;;;7.30;6.60;;;;;;;;;;5047614;28;20211;-76
2023/04/08 02:24:49;;;;;;;7.40;6.70;;;;;;;;;;5030134;28;20217;-76
2023/04/08 02:27:17;;;;;;;7.63;6.73;;;;;;;;;;5047108;28;20269;-78
2023/04/08 02:29:43;;;;;;;8.00;7.10;;;;;;;;;;5030489;28;20201;-75
2023/04/08 02:32:11;;;;;;;7.03;6.33;;;;;;;;;;5047636;28;20846;-76
2023/04/08 02:34:40;;;;;;;7.70;6.57;;;;;;;;;;5044776;28;20699;-76
2023/04/08 02:37:07;;;;;;;7.90;7.10;;;;;;;;;;5046600;28;20240;-79
2023/04/08 02:39:34;;;;;;;7.40;6.70;;;;;;;;;;5048470;28;20197;-76
2023/04/08 02:42:00;;;;;;;7.10;6.40;;;;;;;;;;5046501;28;20201;-76
2023/04/08 02:44:26;;;;;;;7.97;7.17;;;;;;;;;;5047764;28;20245;-76
2023/04/08 02:46:52;;;;;;;7.33;6.63;;;;;;;;;;5044559;28;20189;-77
2023/04/08 02:49:18;;;;;;;7.70;6.90;;;;;;;;;;5046315;28;20201;-76
2023/04/08 02:51:44;;;;;;;8.07;7.27;;;;;;;;;;5045500;28;20293;-77
2023/04/08 02:54:10;;;;;;;7.53;6.83;;;;;;;;;;5045600;28;20177;-77
2023/04/08 02:56:37;;;;;;;7.27;6.57;;;;;;;;;;5045021;28;20304;-77
2023/04/08 02:59:03;;;;;;;7.00;6.30;;;;;;;;;;5033942;28;20269;-76
2023/04/08 03:01:30;;;;;;;8.47;6.90;;;;;;;;;;5026122;28;20886;-78
2023/04/08 03:03:56;;;;;;;8.20;7.07;;;;;;;;;;5029277;28;20577;-76
2023/04/08 03:06:22;;;;;;;7.20;6.50;;;;;;;;;;5045760;28;20802;-76
2023/04/08 03:08:48;;;;;;;6.77;6.13;;;;;;;;;;5045975;28;20181;-76
2023/04/08 03:11:14;;;;;;;7.10;6.40;;;;;;;;;;5040188;28;20184;-77
2023/04/08 03:13:41;;;;;;;7.30;6.60;;;;;;;;;;5045949;28;20218;-75
2023/04/08 03:16:07;;;;;;;7.93;7.17;;;;;;;;;;5046309;28;20196;-76
2023/04/08 03:18:33;;;;;;;8.47;7.10;;;;;;;;;;5019442;28;20264;-76
2023/04/08 03:21:00;;;;;;;7.90;7.10;;;;;;;;;;5032992;28;20238;-76
2023/04/08 03:23:26;;;;;;;7.43;6.73;;;;;;;;;;5027290;28;20213;-76
2023/04/08 03:25:52;;;;;;;7.63;6.90;;;;;;;;;;5010690;28;20231;-76
2023/04/08 03:28:18;;;;;;;7.30;6.50;;;;;;;;;;5050588;28;20857;-76
2023/04/08 03:30:44;;;;;;;7.73;6.93;;;;;;;;;;5033267;28;20213;-76
2023/04/08 03:33:10;;;;;;;8.57;7.10;;;;;;;;;;5044682;28;20289;-76
2023/04/08 03:35:37;;;;;;;7.30;6.60;;;;;;;;;;5047987;28;20739;-76
2023/04/08 03:38:03;;;;;;;6.53;5.83;;;;;;;;;;5032178;28;20194;-76
2023/04/08 03:40:30;;;;;;;7.20;6.50;;;;;;;;;;5032651;28;20190;-76
2023/04/08 03:42:57;;;;;;;8.87;7.43;;;;;;;;;;5044809;28;20217;-76
2023/04/08 03:45:23;;;;;;;7.60;6.80;;;;;;;;;;5046369;28;20170;-76
2023/04/08 03:47:49;;;;;;;7.43;6.63;;;;;;;;;;5031128;28;20243;-76
2023/04/08 03:50:19;;;;;;;7.10;6.40;;;;;;;;;;5039283;28;20539;-76
2023/04/08 03:52:45;;;;;;;7.57;6.87;;;;;;;;;;5046232;28;20282;-75
2023/04/08 03:55:11;;;;;;;7.27;6.57;;;;;;;;;;5047342;28;20185;-75
2023/04/08 03:57:37;;;;;;;7.20;6.50;;;;;;;;;;5030526;28;20182;-76
2023/04/08 04:00:05;;;;;;;8.57;7.10;;;;;;;;;;5015409;28;20196;-76
2023/04/08 04:02:38;;;;;;;9.17;7.90;;;;;;;;;;5046503;28;20241;-76
2023/04/08 04:05:04;;;;;;;8.10;7.30;;;;;;;;;;5047188;28;20261;-76
2023/04/08 04:07:31;;;;;;;7.60;6.90;;;;;;;;;;5049471;28;20177;-75
2023/04/08 04:09:57;;;;;;;8.53;7.63;;;;;;;;;;5044384;28;20186;-76
2023/04/08 04:12:23;;;;;;;8.37;7.57;;;;;;;;;;5047801;28;20302;-76
2023/04/08 04:14:49;;;;;;;7.63;6.73;;;;;;;;;;5041845;28;20696;-76
2023/04/08 04:17:15;;;;;;;6.53;5.93;;;;;;;;;;5043084;28;20239;-78
2023/04/08 04:19:41;;;;;;;7.00;6.30;;;;;;;;;;5046081;28;20186;-77
2023/04/08 04:22:07;;;;;;;7.67;6.57;;;;;;;;;;5047620;28;20255;-77
2023/04/08 04:24:34;;;;;;;7.33;6.57;;;;;;;;;;5048392;28;20217;-77
2023/04/08 04:27:00;;;;;;;7.37;6.60;;;;;;;;;;5049766;28;20589;-76
2023/04/08 04:29:26;;;;;;;8.77;7.13;;;;;;;;;;5047339;28;20216;-76
2023/04/08 04:31:52;;;;;;;6.93;6.23;;;;;;;;;;5045666;28;20206;-76
2023/04/08 04:34:18;;;;;;;8.33;7.20;;;;;;;;;;5047471;28;20194;-76
2023/04/08 04:36:45;;;;;;;8.53;7.30;;;;;;;;;;5041853;28;20213;-77
2023/04/08 04:39:15;;;;;;;7.83;7.03;;;;;;;;;;5030674;28;20727;-76
2023/04/08 04:41:41;;;;;;;7.07;6.37;;;;;;;;;;5048849;28;20208;-76
2023/04/08 04:44:07;;;;;;;7.40;6.70;;;;;;;;;;5048168;28;21061;-76
2023/04/08 04:46:33;;;;;;;7.47;6.77;;;;;;;;;;5044405;28;20208;-76
2023/04/08 04:48:59;;;;;;;8.47;7.57;;;;;;;;;;5046954;28;20174;-76
2023/04/08 04:51:26;;;;;;;8.60;7.60;;;;;;;;;;5049708;28;20213;-76
2023/04/08 04:53:52;;;;;;;8.77;7.87;;;;;;;;;;5043129;28;20654;-76
2023/04/08 04:56:18;;;;;;;9.70;8.70;;;;;;;;;;5050089;28;20190;-76
2023/04/08 04:58:44;;;;;;;8.80;7.90;;;;;;;;;;5048259;28;20240;-76
2023/04/08 05:01:10;;;;;;;8.80;7.80;;;;;;;;;;5049352;28;20185;-76
2023/04/08 05:03:36;;;;;;;8.07;7.27;;;;;;;;;;5047418;28;20213;-75
2023/04/08 05:06:03;;;;;;;8.60;6.70;;;;;;;;;;5049557;28;20181;-75
2023/04/08 05:08:29;;;;;;;7.50;6.80;;;;;;;;;;5048800;28;20331;-76
2023/04/08 05:10:55;;;;;;;6.90;6.20;;;;;;;;;;5044739;28;20182;-76
2023/04/08 05:13:21;;;;;;;7.90;7.10;;;;;;;;;;5047819;28;20201;-77
2023/04/08 05:15:47;;;;;;;8.17;7.20;;;;;;;;;;5048122;28;20208;-76
2023/04/08 05:18:14;;;;;;;10.47;7.90;;;;;;;;;;5046898;28;20331;-77
2023/04/08 05:20:40;;;;;;;8.23;7.40;;;;;;;;;;5045293;28;20192;-77
2023/04/08 05:23:06;;;;;;;8.50;7.27;;;;;;;;;;5038226;28;20210;-76
2023/04/08 05:25:33;;;;;;;7.90;7.10;;;;;;;;;;5037258;28;20227;-76
2023/04/08 05:27:59;;;;;;;8.50;7.60;;;;;;;;;;5047585;28;20182;-75
2023/04/08 05:30:25;;;;;;;8.13;7.33;;;;;;;;;;5044745;28;20190;-76
2023/04/08 05:32:52;;;;;;;9.00;8.10;;;;;;;;;;5041797;28;20205;-76
2023/04/08 05:35:18;;;;;;;8.00;7.13;;;;;;;;;;5046575;28;20186;-75
2023/04/08 05:37:44;;;;;;;9.13;8.03;;;;;;;;;;5040536;28;20188;-75
2023/04/08 05:40:10;;;;;;;9.27;8.20;;;;;;;;;;5044264;28;20195;-75
2023/04/08 05:42:36;;;;;;;10.13;7.57;;;;;;;;;;5042876;28;20209;-76
2023/04/08 05:45:02;;;;;;;8.20;7.37;;;;;;;;;;5033164;28;20186;-78
2023/04/08 05:47:29;;;;;;;9.80;7.70;;;;;;;;;;5045377;28;20554;-77
2023/04/08 05:49:55;;;;;;;8.77;7.87;;;;;;;;;;5045978;28;20190;-77
2023/04/08 05:52:21;;;;;;;8.37;7.47;;;;;;;;;;5047920;28;20206;-74
2023/04/08 05:54:47;;;;;;;8.60;7.70;;;;;;;;;;5038713;28;20272;-76
2023/04/08 05:57:15;;;;;;;8.60;7.70;;;;;;;;;;5042558;28;20189;-77
2023/04/08 05:59:41;;;;;;;7.47;6.77;;;;;;;;;;5043242;28;20190;-74
2023/04/08 06:02:08;;;;;;;9.40;7.97;;;;;;;;;;5047600;28;20205;-73
2023/04/08 06:04:34;;;;;;;9.20;8.23;;;;;;;;;;5046293;28;20264;-74
2023/04/08 06:07:01;;;;;;;9.60;8.60;;;;;;;;;;5027147;28;20619;-74
2023/04/08 06:09:28;;;;;;;10.27;8.83;;;;;;;;;;5044711;28;20186;-75
2023/04/08 06:11:55;;;;;;;10.20;9.20;;;;;;;;;;5025786;28;20225;-74
2023/04/08 06:14:21;;;;;;;10.33;9.23;;;;;;;;;;5045508;28;20288;-76
2023/04/08 06:16:47;;;;;;;10.50;9.27;;;;;;;;;;5047321;28;20268;-77
2023/04/08 06:19:14;;;;;;;9.10;8.20;;;;;;;;;;5045159;28;20265;-76
2023/04/08 06:21:40;;;;;;;9.87;8.13;;;;;;;;;;5042190;28;20217;-75
2023/04/08 06:24:06;;;;;;;10.00;9.00;;;;;;;;;;5037023;28;20695;-75
2023/04/08 06:26:32;;;;;;;9.80;8.20;;;;;;;;;;5048530;28;20219;-74
2023/04/08 06:29:03;;;;;;;9.97;8.97;;;;;;;;;;5050557;28;20189;-75
2023/04/08 06:31:29;;;;;;;9.17;8.23;;;;;;;;;;5049980;28;20192;-78
2023/04/08 06:33:55;;;;;;;9.20;8.23;;;;;;;;;;5043692;28;20197;-75
2023/04/08 06:36:22;;;;;;;9.90;8.23;;;;;;;;;;5047375;28;20837;-74
2023/04/08 06:38:48;;;;;;;9.73;8.73;;;;;;;;;;5044902;28;20194;-77
2023/04/08 06:41:14;;;;;;;10.83;9.67;;;;;;;;;;5047582;28;20185;-76
2023/04/08 06:43:40;;;;;;;11.30;10.20;;;;;;;;;;5046668;28;20315;-78
2023/04/08 06:46:06;;;;;;;12.27;10.10;;;;;;;;;;5047132;28;20173;-77
2023/04/08 06:48:33;;;;;;;12.43;11.13;;;;;;;;;;5043774;28;20170;-75
2023/04/08 06:51:00;;;;;;;11.77;10.57;;;;;;;;;;5044984;28;20186;-75
2023/04/08 06:53:31;;;;;;;12.20;10.83;;;;;;;;;;5044001;28;20224;-74
2023/04/08 06:55:57;;;;;;;11.40;10.27;;;;;;;;;;5036344;28;20193;-73
2023/04/08 06:58:24;;;;;;;12.70;10.80;;;;;;;;;;5039404;28;20280;-73
2023/04/08 07:00:50;;;;;;;11.47;10.27;;;;;;;;;;5040753;28;20210;-75
2023/04/08 07:03:16;;;;;;;11.67;10.43;;;;;;;;;;5040863;28;20295;-74
2023/04/08 07:05:43;;;;;;;13.60;10.67;;;;;;;;;;5046119;28;20253;-74
2023/04/08 07:08:09;;;;;;;11.77;9.90;;;;;;;;;;5039374;28;20683;-75
2023/04/08 07:10:35;;;;;;;11.33;10.13;;;;;;;;;;5043694;28;20166;-75
2023/04/08 07:13:02;;;;;;;12.73;10.30;;;;;;;;;;5044251;28;20677;-75
2023/04/08 07:15:28;;;;;;;10.93;9.83;;;;;;;;;;5045925;28;20601;-74
2023/04/08 07:17:55;;;;;;;11.90;9.40;;;;;;;;;;5041746;28;20182;-73
2023/04/08 07:20:22;;;;;;;13.17;9.63;;;;;;;;;;5036855;28;20240;-73
2023/04/08 07:22:48;;;;;;;11.37;10.17;;;;;;;;;;5045462;28;20197;-74
2023/04/08 07:25:14;;;;;;;9.90;8.60;;;;;;;;;;5047590;28;20661;-76
2023/04/08 07:27:41;;;;;;;11.57;9.10;;;;;;;;;;5051126;28;20181;-79
2023/04/08 07:30:07;;;;;;;11.77;10.10;;;;;;;;;;5044677;28;20674;-79
2023/04/08 07:32:33;;;;;;;10.20;9.17;;;;;;;;;;5047111;28;20212;-78
2023/04/08 07:35:00;;;;;;;11.20;10.00;;;;;;;;;;5054334;28;20248;-79
2023/04/08 07:37:29;;;;;;;10.00;8.90;;;;;;;;;;5026938;28;20244;-80
2023/04/08 07:39:56;;;;;;;10.97;9.67;;;;;;;;;;5024079;28;20182;-76
2023/04/08 07:42:22;;;;;;;13.43;10.00;;;;;;;;;;5043204;28;20210;-77
2023/04/08 07:44:48;;;;;;;10.50;9.40;;;;;;;;;;5047048;28;20661;-77
2023/04/08 07:47:15;;;;;;;10.37;9.30;;;;;;;;;;5045616;28;20200;-76
2023/04/08 07:49:41;;;;;;;9.63;8.63;;;;;;;;;;5043858;28;20811;-77
2023/04/08 07:52:07;;;;;;;10.93;9.83;;;;;;;;;;5049075;28;20292;-76
2023/04/08 07:54:34;;;;;;;9.73;8.73;;;;;;;;;;5050042;28;20725;-76
2023/04/08 07:57:01;;;;;;;10.47;9.33;;;;;;;;;;5047139;28;20239;-76
2023/04/08 07:59:27;;;;;;;11.17;10.07;;;;;;;;;;5047063;28;20805;-77
2023/04/08 08:01:54;;;;;;;10.57;9.47;;;;;;;;;;5046996;28;20209;-77
2023/04/08 08:04:20;;;;;;;11.07;9.87;;;;;;;;;;5049112;28;20296;-77
2023/04/08 08:06:46;;;;;;;9.80;8.80;;;;;;;;;;5042204;28;20191;-77
2023/04/08 08:09:13;;;;;;;10.93;9.10;;;;;;;;;;5039367;28;20182;-76
2023/04/08 08:11:39;;;;;;;9.77;8.40;;;;;;;;;;5044751;28;20830;-76
2023/04/08 08:14:06;;;;;;;10.27;8.80;;;;;;;;;;5047082;28;20194;-76
2023/04/08 08:16:33;;;;;;;9.83;8.17;;;;;;;;;;5041649;28;20193;-77
2023/04/08 08:18:59;;;;;;;9.67;8.03;;;;;;;;;;5046988;28;20761;-75
2023/04/08 08:21:25;;;;;;;9.47;8.30;;;;;;;;;;5047269;28;21077;-73
2023/04/08 08:23:53;;;;;;;12.17;8.57;;;;;;;;;;5044809;28;20810;-75
2023/04/08 08:26:20;;;;;;;9.47;8.40;;;;;;;;;;5042464;28;20190;-74
2023/04/08 08:28:46;;;;;;;10.00;8.20;;;;;;;;;;5047178;28;20265;-75
2023/04/08 08:31:12;;;;;;;10.90;8.47;;;;;;;;;;5045492;28;20182;-75
2023/04/08 08:33:38;;;;;;;10.30;8.87;;;;;;;;;;5044319;28;20189;-75
2023/04/08 08:36:05;;;;;;;11.53;8.30;;;;;;;;;;5042307;28;20197;-75
2023/04/08 08:38:32;;;;;;;9.90;8.53;;;;;;;;;;5042126;28;20193;-75
2023/04/08 08:40:59;;;;;;;10.27;9.17;;;;;;;;;;5047470;28;20961;-82
2023/04/08 08:43:25;;;;;;;10.93;8.93;;;;;;;;;;5029171;28;20665;-78
2023/04/08 08:45:51;;;;;;;10.97;9.07;;;;;;;;;;5048583;28;20206;-77
2023/04/08 08:48:17;;;;;;;13.63;9.53;;;;;;;;;;5046677;28;20196;-76
2023/04/08 08:50:44;;;;;;;10.33;9.00;;;;;;;;;;5048247;28;20272;-82
2023/04/08 08:53:10;;;;;;;9.23;8.17;;;;;;;;;;5046775;28;20447;-77
2023/04/08 08:55:39;;;;;;;9.93;8.80;;;;;;;;;;5046327;28;20181;-79
2023/04/08 08:58:09;;;;;;;10.67;9.40;;;;;;;;;;5050936;28;20613;-77
2023/04/08 09:00:39;;;;;;;10.90;8.67;;;;;;;;;;5032460;28;20208;-77
2023/04/08 09:03:35;;;;;;;9.57;8.57;;;;;;;;;;5047655;28;20256;-76
2023/04/08 09:06:02;;;;;;;10.03;8.60;;;;;;;;;;5042107;28;20746;-77
2023/04/08 09:08:32;;;;;;;10.20;8.70;;;;;;;;;;5049509;28;20223;-78
2023/04/08 09:11:15;;;;;;;10.07;8.57;;;;;;;;;;5049116;28;20182;-78
2023/04/08 09:13:41;;;;;;;10.90;8.80;;;;;;;;;;5030405;28;20194;-80
2023/04/08 09:16:12;;;;;;;12.73;9.23;;;;;;;;;;5046930;28;20273;-77
2023/04/08 09:18:43;;;;;;;9.40;8.50;;;;;;;;;;5041781;28;20656;-77
2023/04/08 09:21:10;;;;;;;10.87;8.87;;;;;;;;;;5045627;28;20227;-76
2023/04/08 09:23:44;;;;;;;9.63;8.53;;;;;;;;;;5041503;28;20205;-77
2023/04/08 09:26:11;;;;;;;10.23;9.20;;;;;;;;;;5056172;28;20220;-76
2023/04/08 09:28:38;;;;;;;11.90;10.33;;;;;;;;;;5043255;28;20199;-76
2023/04/08 09:31:26;;;;;;;11.53;9.73;;;;;;;;;;5045995;28;20181;-77
2023/04/08 09:33:53;;;;;;;10.90;9.80;;;;;;;;;;5045979;28;20189;-77
2023/04/08 09:36:19;;;;;;;11.37;10.10;;;;;;;;;;5044147;28;21520;-77
2023/04/08 09:38:45;;;;;;;11.73;9.70;;;;;;;;;;5043119;28;20195;-77
2023/04/08 09:41:16;;;;;;;11.13;9.87;;;;;;;;;;5045889;28;20188;-77
2023/04/08 09:44:03;;;;;;;11.07;9.93;;;;;;;;;;5043621;28;20209;-77
2023/04/08 09:46:45;;;;;;;11.30;10.03;;;;;;;;;;5041399;28;20186;-77
2023/04/08 09:49:30;;;;;;;12.57;10.47;;;;;;;;;;5048167;28;20182;-78
2023/04/08 09:51:59;;;;;;;13.13;10.53;;;;;;;;;;5044479;28;20278;-77
2023/04/08 09:54:31;;;;;;;11.43;10.07;;;;;;;;;;5040307;28;20725;-77
2023/04/08 09:57:04;;;;;;;13.47;10.67;;;;;;;;;;5045999;28;20177;-77
2023/04/08 09:59:35;;;;;;;12.90;10.20;;;;;;;;;;5042012;28;20178;-77
2023/04/08 10:02:05;;;;;;;13.70;10.73;;;;;;;;;;5039936;28;20215;-77
2023/04/08 10:04:35;;;;;;;13.60;10.03;;;;;;;;;;5046052;28;20214;-77
2023/04/08 10:07:03;;;;;;;11.50;9.57;;;;;;;;;;5045577;28;20185;-77
2023/04/08 10:09:31;;;;;;;12.03;9.80;;;;;;;;;;5045560;28;20197;-77
2023/04/08 10:11:58;;;;;;;12.00;10.33;;;;;;;;;;5049296;28;20197;-77
2023/04/08 10:14:27;;;;;;;12.23;10.33;;;;;;;;;;5045832;28;20281;-77
2023/04/08 10:17:14;;;;;;;12.70;10.73;;;;;;;;;;5045338;28;20692;-77
2023/04/08 10:19:40;;;;;;;12.10;10.80;;;;;;;;;;5033032;28;20197;-77
2023/04/08 10:22:26;;;;;;;14.03;10.63;;;;;;;;;;5031597;28;20301;-77
2023/04/08 10:25:28;;;;;;;10.73;9.33;;;;;;;;;;5048318;28;20568;-77
2023/04/08 10:27:54;;;;;;;12.57;9.60;;;;;;;;;;5003930;28;20282;-76
2023/04/08 10:30:27;;;;;;;13.40;8.83;;;;;;;;;;5036341;28;20198;-76
2023/04/08 10:32:58;;;;;;;9.40;8.40;;;;;;;;;;5043135;28;20731;-75
2023/04/08 10:35:31;;;;;;;10.10;8.70;;;;;;;;;;5048720;28;20180;-77
2023/04/08 10:37:58;;;;;;;9.50;8.40;;;;;;;;;;5042705;28;20194;-79
2023/04/08 10:40:25;;;;;;;9.97;8.50;;;;;;;;;;5040839;28;20217;-76
2023/04/08 10:42:56;;;;;;;10.63;8.17;;;;;;;;;;5044358;28;20279;-77
2023/04/08 10:45:22;;;;;;;9.53;8.23;;;;;;;;;;5063073;28;20193;-77
2023/04/08 10:47:49;;;;;;;8.77;7.23;;;;;;;;;;5047834;28;20188;-78
2023/04/08 10:50:16;;;;;;;8.67;7.73;;;;;;;;;;5029643;28;20224;-78
2023/04/08 10:52:49;;;;;;;8.00;7.20;;;;;;;;;;5045400;28;20244;-77
2023/04/08 10:55:17;;;;;;;8.63;7.50;;;;;;;;;;5044285;28;20256;-74
2023/04/08 10:57:44;;;;;;;8.10;7.30;;;;;;;;;;5050162;28;20212;-76
2023/04/08 11:00:11;;;;;;;7.90;7.10;;;;;;;;;;5050231;28;20265;-73
2023/04/08 11:02:38;;;;;;;8.30;7.43;;;;;;;;;;5049099;28;20208;-72
2023/04/08 11:05:04;;;;;;;10.43;8.30;;;;;;;;;;5047880;28;20244;-72
2023/04/08 11:07:30;;;;;;;8.90;8.00;;;;;;;;;;5042191;28;20556;-69
2023/04/08 11:09:57;;;;;;;7.93;6.87;;;;;;;;;;5050891;28;20624;-70
2023/04/08 11:12:23;;;;;;;8.70;7.80;;;;;;;;;;5048926;28;20226;-70
2023/04/08 11:14:51;;;;;;;7.47;6.60;;;;;;;;;;5044938;28;20215;-71
2023/04/08 11:17:18;;;;;;;8.10;7.30;;;;;;;;;;5049653;28;20324;-71
2023/04/08 11:19:46;;;;;;;9.00;7.23;;;;;;;;;;5050963;28;20576;-72
2023/04/08 11:22:12;;;;;;;9.03;7.80;;;;;;;;;;5046200;28;20242;-71
2023/04/08 11:24:39;;;;;;;8.70;7.57;;;;;;;;;;5051068;28;20212;-71
2023/04/08 11:27:06;;;;;;;8.80;7.87;;;;;;;;;;5050942;28;20244;-71
2023/04/08 11:29:32;;;;;;;10.93;8.07;;;;;;;;;;5047448;28;20178;-71
2023/04/08 11:31:59;;;;;;;8.60;7.40;;;;;;;;;;5049654;28;20300;-72
2023/04/08 11:34:27;;;;;;;9.70;7.37;;;;;;;;;;5029196;28;20213;-72
2023/04/08 11:36:53;;;;;;;9.67;7.27;;;;;;;;;;5050515;28;20186;-72
2023/04/08 11:39:22;;;;;;;9.57;7.80;;;;;;;;;;5049462;28;20224;-71
2023/04/08 11:41:48;;;;;;;8.80;7.90;;;;;;;;;;5051231;28;20274;-71
2023/04/08 11:44:15;;;;;;;9.53;8.53;;;;;;;;;;5049582;28;20232;-71
2023/04/08 11:46:54;;;;;;;8.93;7.77;;;;;;;;;;5049789;28;20193;-72
2023/04/08 11:49:20;;;;;;;9.80;8.13;;;;;;;;;;5046391;28;20190;-71
2023/04/08 11:51:56;;;;;;;7.73;6.93;;;;;;;;;;5048611;28;20218;-71
2023/04/08 11:54:29;;;;;;;9.23;7.17;;;;;;;;;;5048311;28;20192;-72
2023/04/08 11:56:57;;;;;;;9.00;7.50;;;;;;;;;;5043996;28;20178;-71
2023/04/08 11:59:23;;;;;;;8.10;7.30;;;;;;;;;;5044938;28;20185;-73
2023/04/08 12:01:51;;;;;;;8.97;7.60;;;;;;;;;;5051286;28;20679;-74
2023/04/08 12:04:17;;;;;;;8.40;7.23;;;;;;;;;;5043697;28;20645;-73
2023/04/08 12:06:45;;;;;;;7.67;6.83;;;;;;;;;;5049230;28;20178;-73
2023/04/08 12:09:15;;;;;;;7.20;6.50;;;;;;;;;;5040992;28;20641;-73
2023/04/08 12:11:41;;;;;;;8.73;6.57;;;;;;;;;;5049793;28;20212;-73
2023/04/08 12:14:08;;;;;;;6.63;6.03;;;;;;;;;;5042646;28;20182;-74
2023/04/08 12:16:35;;;;;;;8.40;6.47;;;;;;;;;;5042742;28;20190;-75
2023/04/08 12:19:01;;;;;;;7.63;6.83;;;;;;;;;;5043826;28;20265;-75
2023/04/08 12:21:27;;;;;;;7.10;6.40;;;;;;;;;;5045706;28;20186;-74
2023/04/08 12:23:53;;;;;;;8.40;7.33;;;;;;;;;;5043194;28;20272;-74
2023/04/08 12:26:19;;;;;;;7.57;6.47;;;;;;;;;;5047785;28;20178;-74
2023/04/08 12:28:46;;;;;;;7.47;6.50;;;;;;;;;;5046117;28;20178;-74
2023/04/08 12:31:12;;;;;;;8.53;6.37;;;;;;;;;;5050406;28;20194;-74
2023/04/08 12:33:38;;;;;;;7.23;6.20;;;;;;;;;;5046708;28;20213;-74
2023/04/08 12:36:04;;;;;;;7.53;6.23;;;;;;;;;;5043229;28;20545;-74
2023/04/08 12:38:30;;;;;;;7.97;6.40;;;;;;;;;;5035118;28;20186;-74
2023/04/08 12:40:57;;;;;;;7.00;5.60;;;;;;;;;;5039697;28;20280;-74
2023/04/08 12:43:23;;;;;;;7.87;6.30;;;;;;;;;;5036406;28;20213;-75
2023/04/08 12:45:50;;;;;;;8.67;6.00;;;;;;;;;;5046386;28;20186;-75
2023/04/08 12:48:17;;;;;;;6.80;6.00;;;;;;;;;;5041735;28;20221;-75
2023/04/08 12:50:43;;;;;;;7.43;6.37;;;;;;;;;;5041670;28;20186;-75
2023/04/08 12:53:09;;;;;;;6.30;5.67;;;;;;;;;;5044566;28;20220;-75
2023/04/08 12:55:36;;;;;;;8.03;6.47;;;;;;;;;;5042987;28;22022;-75
2023/04/08 12:58:04;;;;;;;6.37;5.40;;;;;;;;;;5026656;28;20217;-75
2023/04/08 13:00:31;;;;;;;5.67;5.17;;;;;;;;;;5041829;28;20190;-75
2023/04/08 13:02:58;;;;;;;6.30;5.70;;;;;;;;;;5042142;28;20212;-75
2023/04/08 13:05:24;;;;;;;8.60;6.40;;;;;;;;;;5041773;28;20182;-75
2023/04/08 13:07:51;;;;;;;5.83;5.23;;;;;;;;;;5038732;28;20188;-75
2023/04/08 13:10:18;;;;;;;6.40;5.70;;;;;;;;;;5037401;28;20185;-74
2023/04/08 13:12:44;;;;;;;6.30;5.70;;;;;;;;;;5044340;28;20247;-75
2023/04/08 13:15:10;;;;;;;5.77;5.10;;;;;;;;;;5043930;28;20241;-75
2023/04/08 13:17:36;;;;;;;6.00;5.40;;;;;;;;;;5050412;28;20230;-75
2023/04/08 13:20:03;;;;;;;6.13;5.53;;;;;;;;;;5037145;28;20234;-74
2023/04/08 13:22:29;;;;;;;8.30;5.07;;;;;;;;;;5043008;28;20207;-74
2023/04/08 13:24:55;;;;;;;8.13;5.33;;;;;;;;;;5049254;28;20212;-74
2023/04/08 13:27:21;;;;;;;5.70;4.90;;;;;;;;;;5043002;28;20185;-74
2023/04/08 13:29:48;;;;;;;6.70;5.60;;;;;;;;;;5047374;28;20218;-74
2023/04/08 13:32:14;;;;;;;6.03;5.43;;;;;;;;;;5039031;28;20335;-74
2023/04/08 13:34:41;;;;;;;6.50;5.90;;;;;;;;;;5043109;28;20189;-74
2023/04/08 13:37:07;;;;;;;6.80;5.87;;;;;;;;;;5044574;28;20199;-74
2023/04/08 13:39:33;;;;;;;6.07;5.47;;;;;;;;;;5039459;28;20249;-74
2023/04/08 13:41:59;;;;;;;6.17;5.27;;;;;;;;;;5043213;28;20637;-74
2023/04/08 13:44:26;;;;;;;6.43;4.97;;;;;;;;;;5039556;28;20237;-74
2023/04/08 13:46:52;;;;;;;7.03;5.73;;;;;;;;;;5038426;28;20174;-74
2023/04/08 13:49:18;;;;;;;7.97;6.50;;;;;;;;;;5043165;28;20186;-74
2023/04/08 13:51:44;;;;;;;8.17;5.70;;;;;;;;;;5040761;28;20586;-74
2023/04/08 13:54:10;;;;;;;6.80;6.07;;;;;;;;;;5041914;28;20198;-74
2023/04/08 13:56:36;;;;;;;6.53;5.60;;;;;;;;;;5046647;28;20289;-73
2023/04/08 13:59:02;;;;;;;7.20;6.30;;;;;;;;;;5021407;28;20197;-74
2023/04/08 14:01:29;;;;;;;6.53;5.53;;;;;;;;;;5042713;28;20223;-74
2023/04/08 14:03:55;;;;;;;6.47;5.87;;;;;;;;;;5039985;28;20217;-74
2023/04/08 14:06:21;;;;;;;7.33;5.20;;;;;;;;;;5047579;28;20255;-74
2023/04/08 14:08:47;;;;;;;4.70;4.20;;;;;;;;;;5037776;28;20197;-74
2023/04/08 14:11:13;;;;;;;7.83;5.53;;;;;;;;;;5041626;28;20271;-73
2023/04/08 14:13:39;;;;;;;6.23;5.10;;;;;;;;;;5042324;28;20586;-74
2023/04/08 14:16:05;;;;;;;5.80;5.20;;;;;;;;;;5037262;28;20312;-73
2023/04/08 14:18:31;;;;;;;6.00;4.63;;;;;;;;;;5041630;28;20244;-73
2023/04/08 14:20:58;;;;;;;5.13;4.00;;;;;;;;;;5042498;28;20260;-74
2023/04/08 14:23:24;;;;;;;5.83;4.10;;;;;;;;;;5038455;28;20213;-73
2023/04/08 14:25:50;;;;;;;5.53;4.30;;;;;;;;;;5040007;28;20291;-74
2023/04/08 14:28:16;;;;;;;4.90;4.10;;;;;;;;;;5040038;28;20259;-73
2023/04/08 14:30:42;;;;;;;4.83;3.83;;;;;;;;;;5045571;28;20186;-73
2023/04/08 14:33:08;;;;;;;5.43;4.00;;;;;;;;;;5043466;28;20193;-73
2023/04/08 14:35:35;;;;;;;4.57;4.07;;;;;;;;;;5043462;28;20196;-73
2023/04/08 14:38:01;;;;;;;5.00;3.70;;;;;;;;;;5039897;28;20183;-73
2023/04/08 14:40:27;;;;;;;5.83;4.33;;;;;;;;;;5043094;28;20264;-73